sensor_id;sensor_type;location;lat;lon;timestamp;P1;durP1;ratioP1;P2;durP2;ratioP2
22606;SDS011;11470;20.968;105.834;2023-11-21T00:00:21;128.05;;;78.15;;
22606;SDS011;11470;20.968;105.834;2023-11-21T00:05:26;147.63;;;91.82;;
22606;SDS011;11470;20.968;105.834;2023-11-21T00:10:30;130.55;;;80.97;;
22606;SDS011;11470;20.968;105.834;2023-11-21T00:15:35;153.13;;;91.45;;
22606;SDS011;11470;20.968;105.834;2023-11-21T00:20:41;124.72;;;79.53;;
22606;SDS011;11470;20.968;105.834;2023-11-21T00:25:45;137.80;;;84.95;;
22606;SDS011;11470;20.968;105.834;2023-11-21T00:30:50;135.90;;;87.65;;
22606;SDS011;11470;20.968;105.834;2023-11-21T00:35:55;134.52;;;80.45;;
22606;SDS011;11470;20.968;105.834;2023-11-21T00:41:00;161.00;;;88.93;;
22606;SDS011;11470;20.968;105.834;2023-11-21T00:46:06;156.60;;;97.32;;
22606;SDS011;11470;20.968;105.834;2023-11-21T00:51:11;131.83;;;83.33;;
22606;SDS011;11470;20.968;105.834;2023-11-21T00:56:18;158.60;;;100.32;;
22606;SDS011;11470;20.968;105.834;2023-11-21T01:01:23;149.00;;;92.57;;
22606;SDS011;11470;20.968;105.834;2023-11-21T01:06:28;125.07;;;79.60;;
22606;SDS011;11470;20.968;105.834;2023-11-21T01:11:34;129.50;;;86.05;;
22606;SDS011;11470;20.968;105.834;2023-11-21T01:16:40;134.82;;;85.78;;
22606;SDS011;11470;20.968;105.834;2023-11-21T01:21:47;137.27;;;89.10;;
22606;SDS011;11470;20.968;105.834;2023-11-21T01:26:52;143.43;;;95.60;;
22606;SDS011;11470;20.968;105.834;2023-11-21T01:31:56;123.13;;;73.70;;
22606;SDS011;11470;20.968;105.834;2023-11-21T01:37:01;158.25;;;100.68;;
22606;SDS011;11470;20.968;105.834;2023-11-21T01:42:08;148.80;;;96.05;;
22606;SDS011;11470;20.968;105.834;2023-11-21T01:52:19;141.85;;;93.82;;
22606;SDS011;11470;20.968;105.834;2023-11-21T01:57:24;124.33;;;78.73;;
22606;SDS011;11470;20.968;105.834;2023-11-21T02:02:29;129.70;;;84.13;;
22606;SDS011;11470;20.968;105.834;2023-11-21T02:07:34;154.77;;;102.97;;
22606;SDS011;11470;20.968;105.834;2023-11-21T02:12:42;207.70;;;106.13;;
22606;SDS011;11470;20.968;105.834;2023-11-21T02:17:48;106.65;;;65.90;;
22606;SDS011;11470;20.968;105.834;2023-11-21T02:22:57;158.02;;;100.88;;
22606;SDS011;11470;20.968;105.834;2023-11-21T02:33:07;122.93;;;77.32;;
22606;SDS011;11470;20.968;105.834;2023-11-21T02:38:12;158.10;;;104.47;;
22606;SDS011;11470;20.968;105.834;2023-11-21T02:43:20;134.52;;;86.70;;
22606;SDS011;11470;20.968;105.834;2023-11-21T02:48:25;125.88;;;83.00;;
22606;SDS011;11470;20.968;105.834;2023-11-21T02:53:29;151.50;;;97.30;;
22606;SDS011;11470;20.968;105.834;2023-11-21T02:58:34;119.38;;;77.63;;
22606;SDS011;11470;20.968;105.834;2023-11-21T03:03:39;135.75;;;87.70;;
22606;SDS011;11470;20.968;105.834;2023-11-21T03:08:46;109.78;;;72.07;;
22606;SDS011;11470;20.968;105.834;2023-11-21T03:13:50;120.95;;;73.07;;
22606;SDS011;11470;20.968;105.834;2023-11-21T03:18:55;107.45;;;67.32;;
22606;SDS011;11470;20.968;105.834;2023-11-21T03:24:00;110.70;;;68.70;;
22606;SDS011;11470;20.968;105.834;2023-11-21T03:29:05;114.80;;;69.70;;
22606;SDS011;11470;20.968;105.834;2023-11-21T03:34:16;92.90;;;59.50;;
22606;SDS011;11470;20.968;105.834;2023-11-21T03:39:29;82.63;;;52.45;;
22606;SDS011;11470;20.968;105.834;2023-11-21T03:44:34;82.53;;;51.28;;
22606;SDS011;11470;20.968;105.834;2023-11-21T03:49:40;79.88;;;49.25;;
22606;SDS011;11470;20.968;105.834;2023-11-21T03:54:45;73.78;;;46.05;;
22606;SDS011;11470;20.968;105.834;2023-11-21T03:59:50;64.07;;;36.33;;
22606;SDS011;11470;20.968;105.834;2023-11-21T04:04:55;75.85;;;47.53;;
22606;SDS011;11470;20.968;105.834;2023-11-21T04:10:00;75.22;;;49.90;;
22606;SDS011;11470;20.968;105.834;2023-11-21T04:15:05;74.15;;;48.35;;
22606;SDS011;11470;20.968;105.834;2023-11-21T04:20:12;83.07;;;52.05;;
22606;SDS011;11470;20.968;105.834;2023-11-21T04:25:16;70.13;;;42.85;;
22606;SDS011;11470;20.968;105.834;2023-11-21T04:30:21;71.70;;;47.35;;
22606;SDS011;11470;20.968;105.834;2023-11-21T04:35:26;77.97;;;48.15;;
22606;SDS011;11470;20.968;105.834;2023-11-21T04:40:31;69.00;;;44.30;;
22606;SDS011;11470;20.968;105.834;2023-11-21T04:45:36;82.25;;;50.13;;
22606;SDS011;11470;20.968;105.834;2023-11-21T04:50:41;62.22;;;36.13;;
22606;SDS011;11470;20.968;105.834;2023-11-21T04:55:46;55.63;;;34.70;;
22606;SDS011;11470;20.968;105.834;2023-11-21T05:00:52;57.97;;;39.58;;
22606;SDS011;11470;20.968;105.834;2023-11-21T05:05:57;53.23;;;34.63;;
22606;SDS011;11470;20.968;105.834;2023-11-21T05:11:04;44.17;;;26.10;;
22606;SDS011;11470;20.968;105.834;2023-11-21T05:16:10;45.55;;;25.17;;
22606;SDS011;11470;20.968;105.834;2023-11-21T05:21:16;53.90;;;34.58;;
22606;SDS011;11470;20.968;105.834;2023-11-21T05:26:23;52.33;;;32.35;;
22606;SDS011;11470;20.968;105.834;2023-11-21T05:31:28;49.63;;;28.52;;
22606;SDS011;11470;20.968;105.834;2023-11-21T05:36:33;49.08;;;26.83;;
22606;SDS011;11470;20.968;105.834;2023-11-21T05:41:38;55.60;;;29.90;;
22606;SDS011;11470;20.968;105.834;2023-11-21T05:46:42;41.15;;;24.52;;
22606;SDS011;11470;20.968;105.834;2023-11-21T05:51:48;28.17;;;15.13;;
22606;SDS011;11470;20.968;105.834;2023-11-21T05:56:53;45.28;;;29.40;;
22606;SDS011;11470;20.968;105.834;2023-11-21T06:01:58;41.08;;;23.33;;
22606;SDS011;11470;20.968;105.834;2023-11-21T06:07:03;32.33;;;21.00;;
22606;SDS011;11470;20.968;105.834;2023-11-21T06:12:09;41.25;;;26.30;;
22606;SDS011;11470;20.968;105.834;2023-11-21T06:17:13;30.83;;;18.87;;
22606;SDS011;11470;20.968;105.834;2023-11-21T06:22:18;42.70;;;21.70;;
22606;SDS011;11470;20.968;105.834;2023-11-21T06:27:23;28.77;;;17.75;;
22606;SDS011;11470;20.968;105.834;2023-11-21T06:32:29;28.38;;;15.20;;
22606;SDS011;11470;20.968;105.834;2023-11-21T06:37:34;28.17;;;15.70;;
22606;SDS011;11470;20.968;105.834;2023-11-21T06:42:39;32.97;;;17.92;;
22606;SDS011;11470;20.968;105.834;2023-11-21T06:47:45;24.97;;;15.10;;
22606;SDS011;11470;20.968;105.834;2023-11-21T06:52:50;31.35;;;16.80;;
22606;SDS011;11470;20.968;105.834;2023-11-21T06:57:54;29.90;;;16.40;;
22606;SDS011;11470;20.968;105.834;2023-11-21T07:03:01;23.63;;;13.70;;
22606;SDS011;11470;20.968;105.834;2023-11-21T07:08:06;22.40;;;13.77;;
22606;SDS011;11470;20.968;105.834;2023-11-21T07:13:11;29.65;;;17.10;;
22606;SDS011;11470;20.968;105.834;2023-11-21T07:18:16;28.30;;;13.77;;
22606;SDS011;11470;20.968;105.834;2023-11-21T07:23:27;14.57;;;8.45;;
22606;SDS011;11470;20.968;105.834;2023-11-21T07:28:35;17.30;;;10.25;;
22606;SDS011;11470;20.968;105.834;2023-11-21T07:33:43;28.80;;;17.17;;
22606;SDS011;11470;20.968;105.834;2023-11-21T07:38:51;28.30;;;18.10;;
22606;SDS011;11470;20.968;105.834;2023-11-21T07:43:56;28.37;;;14.83;;
22606;SDS011;11470;20.968;105.834;2023-11-21T07:49:01;38.77;;;22.33;;
22606;SDS011;11470;20.968;105.834;2023-11-21T07:54:06;21.00;;;9.47;;
22606;SDS011;11470;20.968;105.834;2023-11-21T07:59:11;31.05;;;17.52;;
22606;SDS011;11470;20.968;105.834;2023-11-21T08:04:18;39.17;;;24.63;;
22606;SDS011;11470;20.968;105.834;2023-11-21T08:09:26;38.47;;;22.65;;
22606;SDS011;11470;20.968;105.834;2023-11-21T08:14:32;26.08;;;16.35;;
22606;SDS011;11470;20.968;105.834;2023-11-21T08:19:36;46.30;;;26.27;;
22606;SDS011;11470;20.968;105.834;2023-11-21T08:24:41;22.13;;;13.57;;
22606;SDS011;11470;20.968;105.834;2023-11-21T08:29:46;43.65;;;23.88;;
22606;SDS011;11470;20.968;105.834;2023-11-21T08:34:51;55.70;;;35.05;;
22606;SDS011;11470;20.968;105.834;2023-11-21T08:39:57;32.00;;;16.23;;
22606;SDS011;11470;20.968;105.834;2023-11-21T08:45:06;53.28;;;30.98;;
22606;SDS011;11470;20.968;105.834;2023-11-21T08:55:17;60.10;;;36.80;;
22606;SDS011;11470;20.968;105.834;2023-11-21T09:00:23;47.20;;;24.58;;
22606;SDS011;11470;20.968;105.834;2023-11-21T09:05:28;56.72;;;34.42;;
22606;SDS011;11470;20.968;105.834;2023-11-21T09:10:33;61.07;;;37.77;;
22606;SDS011;11470;20.968;105.834;2023-11-21T09:15:43;55.83;;;26.85;;
22606;SDS011;11470;20.968;105.834;2023-11-21T09:20:49;65.90;;;39.28;;
22606;SDS011;11470;20.968;105.834;2023-11-21T09:25:54;73.40;;;45.28;;
22606;SDS011;11470;20.968;105.834;2023-11-21T09:31:00;65.53;;;39.80;;
22606;SDS011;11470;20.968;105.834;2023-11-21T09:36:10;41.17;;;22.55;;
22606;SDS011;11470;20.968;105.834;2023-11-21T09:41:21;69.75;;;45.70;;
22606;SDS011;11470;20.968;105.834;2023-11-21T09:46:49;64.53;;;34.47;;
22606;SDS011;11470;20.968;105.834;2023-11-21T09:52:00;73.78;;;42.72;;
22606;SDS011;11470;20.968;105.834;2023-11-21T09:57:09;75.82;;;48.75;;
22606;SDS011;11470;20.968;105.834;2023-11-21T10:02:14;66.57;;;37.07;;
22606;SDS011;11470;20.968;105.834;2023-11-21T10:07:21;72.97;;;48.35;;
22606;SDS011;11470;20.968;105.834;2023-11-21T10:12:28;71.13;;;46.33;;
22606;SDS011;11470;20.968;105.834;2023-11-21T10:17:35;68.25;;;46.92;;
22606;SDS011;11470;20.968;105.834;2023-11-21T10:22:46;79.63;;;50.70;;
22606;SDS011;11470;20.968;105.834;2023-11-21T10:27:55;79.35;;;51.88;;
22606;SDS011;11470;20.968;105.834;2023-11-21T10:33:05;79.60;;;50.83;;
22606;SDS011;11470;20.968;105.834;2023-11-21T10:38:11;89.93;;;58.80;;
22606;SDS011;11470;20.968;105.834;2023-11-21T10:48:23;99.35;;;60.50;;
22606;SDS011;11470;20.968;105.834;2023-11-21T10:53:28;73.73;;;40.97;;
22606;SDS011;11470;20.968;105.834;2023-11-21T10:58:35;95.97;;;57.08;;
22606;SDS011;11470;20.968;105.834;2023-11-21T11:03:42;85.65;;;53.92;;
22606;SDS011;11470;20.968;105.834;2023-11-21T11:08:48;77.25;;;46.90;;
22606;SDS011;11470;20.968;105.834;2023-11-21T11:13:54;77.72;;;45.08;;
22606;SDS011;11470;20.968;105.834;2023-11-21T11:19:00;86.35;;;54.75;;
22606;SDS011;11470;20.968;105.834;2023-11-21T11:24:09;85.45;;;51.60;;
22606;SDS011;11470;20.968;105.834;2023-11-21T11:29:33;73.97;;;38.67;;
22606;SDS011;11470;20.968;105.834;2023-11-21T11:35:10;79.40;;;48.58;;
22606;SDS011;11470;20.968;105.834;2023-11-21T11:40:19;78.50;;;48.92;;
22606;SDS011;11470;20.968;105.834;2023-11-21T11:45:31;78.97;;;46.67;;
22606;SDS011;11470;20.968;105.834;2023-11-21T11:50:38;72.43;;;38.65;;
22606;SDS011;11470;20.968;105.834;2023-11-21T12:01:32;67.35;;;42.75;;
22606;SDS011;11470;20.968;105.834;2023-11-21T12:06:37;67.18;;;40.17;;
22606;SDS011;11470;20.968;105.834;2023-11-21T12:11:44;76.65;;;37.97;;
22606;SDS011;11470;20.968;105.834;2023-11-21T12:16:50;67.15;;;39.88;;
22606;SDS011;11470;20.968;105.834;2023-11-21T12:21:55;58.80;;;35.27;;
22606;SDS011;11470;20.968;105.834;2023-11-21T12:27:00;56.43;;;35.97;;
22606;SDS011;11470;20.968;105.834;2023-11-21T12:32:09;69.13;;;36.13;;
22606;SDS011;11470;20.968;105.834;2023-11-21T12:37:14;57.78;;;34.28;;
22606;SDS011;11470;20.968;105.834;2023-11-21T12:42:23;54.15;;;30.75;;
22606;SDS011;11470;20.968;105.834;2023-11-21T12:47:35;64.22;;;37.30;;
22606;SDS011;11470;20.968;105.834;2023-11-21T12:53:02;66.57;;;37.63;;
22606;SDS011;11470;20.968;105.834;2023-11-21T12:58:20;37.00;;;19.40;;
22606;SDS011;11470;20.968;105.834;2023-11-21T13:03:28;51.85;;;28.08;;
22606;SDS011;11470;20.968;105.834;2023-11-21T13:13:43;57.53;;;32.33;;
22606;SDS011;11470;20.968;105.834;2023-11-21T13:18:48;57.25;;;28.95;;
22606;SDS011;11470;20.968;105.834;2023-11-21T13:23:53;49.28;;;27.80;;
22606;SDS011;11470;20.968;105.834;2023-11-21T13:28:59;59.40;;;30.73;;
22606;SDS011;11470;20.968;105.834;2023-11-21T13:39:35;66.88;;;38.03;;
22606;SDS011;11470;20.968;105.834;2023-11-21T13:44:41;74.32;;;40.38;;
22606;SDS011;11470;20.968;105.834;2023-11-21T13:49:50;64.05;;;30.83;;
22606;SDS011;11470;20.968;105.834;2023-11-21T13:54:55;68.65;;;37.28;;
22606;SDS011;11470;20.968;105.834;2023-11-21T14:05:05;60.80;;;32.88;;
22606;SDS011;11470;20.968;105.834;2023-11-21T14:10:13;70.68;;;37.92;;
22606;SDS011;11470;20.968;105.834;2023-11-21T14:15:19;52.70;;;25.40;;
22606;SDS011;11470;20.968;105.834;2023-11-21T14:20:24;67.70;;;36.45;;
22606;SDS011;11470;20.968;105.834;2023-11-21T14:25:29;63.85;;;34.33;;
22606;SDS011;11470;20.968;105.834;2023-11-21T14:30:34;61.83;;;33.03;;
22606;SDS011;11470;20.968;105.834;2023-11-21T14:35:39;60.77;;;30.80;;
22606;SDS011;11470;20.968;105.834;2023-11-21T14:40:44;79.05;;;40.75;;
22606;SDS011;11470;20.968;105.834;2023-11-21T14:45:51;84.65;;;49.72;;
22606;SDS011;11470;20.968;105.834;2023-11-21T14:50:56;76.22;;;44.85;;
22606;SDS011;11470;20.968;105.834;2023-11-21T14:56:07;79.78;;;47.67;;
22606;SDS011;11470;20.968;105.834;2023-11-21T15:01:26;92.72;;;53.38;;
22606;SDS011;11470;20.968;105.834;2023-11-21T15:06:48;92.78;;;55.90;;
22606;SDS011;11470;20.968;105.834;2023-11-21T15:11:56;83.95;;;44.88;;
22606;SDS011;11470;20.968;105.834;2023-11-21T15:17:07;94.65;;;55.83;;
22606;SDS011;11470;20.968;105.834;2023-11-21T15:22:12;91.37;;;54.43;;
22606;SDS011;11470;20.968;105.834;2023-11-21T15:27:19;87.75;;;49.55;;
22606;SDS011;11470;20.968;105.834;2023-11-21T15:32:27;87.80;;;50.95;;
22606;SDS011;11470;20.968;105.834;2023-11-21T15:37:32;85.28;;;46.50;;
22606;SDS011;11470;20.968;105.834;2023-11-21T15:42:36;94.35;;;54.92;;
22606;SDS011;11470;20.968;105.834;2023-11-21T15:47:42;90.03;;;44.87;;
22606;SDS011;11470;20.968;105.834;2023-11-21T15:52:47;86.93;;;46.00;;
22606;SDS011;11470;20.968;105.834;2023-11-21T15:57:59;92.32;;;53.08;;
22606;SDS011;11470;20.968;105.834;2023-11-21T16:03:07;92.68;;;52.88;;
22606;SDS011;11470;20.968;105.834;2023-11-21T16:08:13;90.15;;;52.00;;
22606;SDS011;11470;20.968;105.834;2023-11-21T16:13:18;95.90;;;55.67;;
22606;SDS011;11470;20.968;105.834;2023-11-21T16:18:23;85.37;;;51.10;;
22606;SDS011;11470;20.968;105.834;2023-11-21T16:23:27;88.63;;;46.75;;
22606;SDS011;11470;20.968;105.834;2023-11-21T16:28:32;83.07;;;48.20;;
22606;SDS011;11470;20.968;105.834;2023-11-21T16:33:37;77.22;;;46.33;;
22606;SDS011;11470;20.968;105.834;2023-11-21T16:38:42;85.88;;;47.80;;
22606;SDS011;11470;20.968;105.834;2023-11-21T16:43:50;85.80;;;44.72;;
22606;SDS011;11470;20.968;105.834;2023-11-21T16:48:55;87.47;;;46.33;;
22606;SDS011;11470;20.968;105.834;2023-11-21T16:54:00;85.40;;;47.10;;
22606;SDS011;11470;20.968;105.834;2023-11-21T16:59:04;79.22;;;44.83;;
22606;SDS011;11470;20.968;105.834;2023-11-21T17:04:09;78.22;;;43.17;;
22606;SDS011;11470;20.968;105.834;2023-11-21T17:09:15;69.43;;;43.07;;
22606;SDS011;11470;20.968;105.834;2023-11-21T17:14:23;76.45;;;44.13;;
22606;SDS011;11470;20.968;105.834;2023-11-21T17:19:27;93.72;;;55.28;;
22606;SDS011;11470;20.968;105.834;2023-11-21T17:24:37;82.70;;;48.25;;
22606;SDS011;11470;20.968;105.834;2023-11-21T17:29:42;82.82;;;50.08;;
22606;SDS011;11470;20.968;105.834;2023-11-21T17:34:46;88.93;;;53.25;;
22606;SDS011;11470;20.968;105.834;2023-11-21T17:39:51;85.63;;;51.17;;
22606;SDS011;11470;20.968;105.834;2023-11-21T17:44:59;90.95;;;57.17;;
22606;SDS011;11470;20.968;105.834;2023-11-21T17:50:22;102.03;;;60.78;;
22606;SDS011;11470;20.968;105.834;2023-11-21T17:55:27;114.30;;;72.55;;
22606;SDS011;11470;20.968;105.834;2023-11-21T18:00:32;114.82;;;73.13;;
22606;SDS011;11470;20.968;105.834;2023-11-21T18:05:37;122.68;;;78.60;;
22606;SDS011;11470;20.968;105.834;2023-11-21T18:10:42;120.65;;;72.68;;
22606;SDS011;11470;20.968;105.834;2023-11-21T18:15:47;124.00;;;80.00;;
22606;SDS011;11470;20.968;105.834;2023-11-21T18:20:52;125.22;;;78.28;;
22606;SDS011;11470;20.968;105.834;2023-11-21T18:25:58;131.73;;;80.25;;
22606;SDS011;11470;20.968;105.834;2023-11-21T18:31:17;125.32;;;76.78;;
22606;SDS011;11470;20.968;105.834;2023-11-21T18:36:21;131.40;;;80.72;;
22606;SDS011;11470;20.968;105.834;2023-11-21T18:41:26;150.70;;;87.15;;
22606;SDS011;11470;20.968;105.834;2023-11-21T18:46:40;147.60;;;87.80;;
22606;SDS011;11470;20.968;105.834;2023-11-21T18:51:45;132.88;;;80.72;;
22606;SDS011;11470;20.968;105.834;2023-11-21T18:56:54;122.47;;;72.65;;
22606;SDS011;11470;20.968;105.834;2023-11-21T19:01:59;142.15;;;82.50;;
22606;SDS011;11470;20.968;105.834;2023-11-21T19:07:11;133.77;;;82.28;;
22606;SDS011;11470;20.968;105.834;2023-11-21T19:12:19;141.02;;;81.32;;
22606;SDS011;11470;20.968;105.834;2023-11-21T19:17:24;114.10;;;70.15;;
22606;SDS011;11470;20.968;105.834;2023-11-21T19:22:30;117.50;;;71.15;;
22606;SDS011;11470;20.968;105.834;2023-11-21T19:27:37;104.95;;;63.63;;
22606;SDS011;11470;20.968;105.834;2023-11-21T19:32:42;111.53;;;65.77;;
22606;SDS011;11470;20.968;105.834;2023-11-21T19:37:48;125.50;;;69.85;;
22606;SDS011;11470;20.968;105.834;2023-11-21T19:42:53;100.63;;;61.95;;
22606;SDS011;11470;20.968;105.834;2023-11-21T19:47:58;118.15;;;73.93;;
22606;SDS011;11470;20.968;105.834;2023-11-21T19:53:02;105.60;;;67.10;;
22606;SDS011;11470;20.968;105.834;2023-11-21T19:58:07;124.75;;;79.75;;
22606;SDS011;11470;20.968;105.834;2023-11-21T20:03:14;97.68;;;58.60;;
22606;SDS011;11470;20.968;105.834;2023-11-21T20:08:22;95.65;;;62.38;;
22606;SDS011;11470;20.968;105.834;2023-11-21T20:13:27;103.65;;;61.67;;
22606;SDS011;11470;20.968;105.834;2023-11-21T20:18:32;101.97;;;63.45;;
22606;SDS011;11470;20.968;105.834;2023-11-21T20:23:36;122.75;;;76.80;;
22606;SDS011;11470;20.968;105.834;2023-11-21T20:28:41;93.40;;;60.35;;
22606;SDS011;11470;20.968;105.834;2023-11-21T20:33:46;102.78;;;61.75;;
22606;SDS011;11470;20.968;105.834;2023-11-21T20:38:51;113.03;;;65.50;;
22606;SDS011;11470;20.968;105.834;2023-11-21T20:43:57;99.90;;;59.53;;
22606;SDS011;11470;20.968;105.834;2023-11-21T20:49:01;96.38;;;59.13;;
22606;SDS011;11470;20.968;105.834;2023-11-21T20:54:06;101.70;;;57.80;;
22606;SDS011;11470;20.968;105.834;2023-11-21T20:59:11;94.57;;;56.00;;
22606;SDS011;11470;20.968;105.834;2023-11-21T21:04:16;102.13;;;61.35;;
22606;SDS011;11470;20.968;105.834;2023-11-21T21:09:21;119.43;;;65.73;;
22606;SDS011;11470;20.968;105.834;2023-11-21T21:14:27;104.45;;;62.03;;
22606;SDS011;11470;20.968;105.834;2023-11-21T21:19:32;80.43;;;47.58;;
22606;SDS011;11470;20.968;105.834;2023-11-21T21:24:37;92.00;;;56.80;;
22606;SDS011;11470;20.968;105.834;2023-11-21T21:34:48;109.15;;;64.45;;
22606;SDS011;11470;20.968;105.834;2023-11-21T21:40:05;113.45;;;69.63;;
22606;SDS011;11470;20.968;105.834;2023-11-21T21:45:11;99.15;;;60.25;;
22606;SDS011;11470;20.968;105.834;2023-11-21T21:50:16;131.98;;;72.78;;
22606;SDS011;11470;20.968;105.834;2023-11-21T21:55:22;120.43;;;73.30;;
22606;SDS011;11470;20.968;105.834;2023-11-21T22:00:27;90.43;;;57.35;;
22606;SDS011;11470;20.968;105.834;2023-11-21T22:05:32;114.28;;;62.60;;
22606;SDS011;11470;20.968;105.834;2023-11-21T22:10:37;94.82;;;54.15;;
22606;SDS011;11470;20.968;105.834;2023-11-21T22:15:45;100.38;;;61.72;;
22606;SDS011;11470;20.968;105.834;2023-11-21T22:20:50;91.70;;;55.60;;
22606;SDS011;11470;20.968;105.834;2023-11-21T22:25:55;106.72;;;65.55;;
22606;SDS011;11470;20.968;105.834;2023-11-21T22:31:00;88.80;;;56.78;;
22606;SDS011;11470;20.968;105.834;2023-11-21T22:36:05;91.23;;;54.30;;
22606;SDS011;11470;20.968;105.834;2023-11-21T22:41:25;118.68;;;76.20;;
22606;SDS011;11470;20.968;105.834;2023-11-21T22:46:30;106.50;;;66.35;;
22606;SDS011;11470;20.968;105.834;2023-11-21T22:51:35;115.90;;;77.25;;
22606;SDS011;11470;20.968;105.834;2023-11-21T22:56:40;110.28;;;71.50;;
22606;SDS011;11470;20.968;105.834;2023-11-21T23:01:46;104.28;;;65.50;;
22606;SDS011;11470;20.968;105.834;2023-11-21T23:06:57;111.25;;;69.78;;
22606;SDS011;11470;20.968;105.834;2023-11-21T23:12:02;114.90;;;69.95;;
22606;SDS011;11470;20.968;105.834;2023-11-21T23:17:07;106.35;;;71.25;;
22606;SDS011;11470;20.968;105.834;2023-11-21T23:22:12;104.18;;;67.20;;
22606;SDS011;11470;20.968;105.834;2023-11-21T23:27:17;105.10;;;66.53;;
22606;SDS011;11470;20.968;105.834;2023-11-21T23:32:22;108.28;;;72.00;;
22606;SDS011;11470;20.968;105.834;2023-11-21T23:37:27;101.55;;;62.53;;
22606;SDS011;11470;20.968;105.834;2023-11-21T23:42:33;89.88;;;59.35;;
22606;SDS011;11470;20.968;105.834;2023-11-21T23:47:38;110.65;;;75.85;;
22606;SDS011;11470;20.968;105.834;2023-11-21T23:52:44;134.00;;;79.73;;
22606;SDS011;11470;20.968;105.834;2023-11-21T23:57:49;111.53;;;72.78;;
